Praia Da Marosa — ECDZ — position and weather

sailwx.info

Track history (hours):
 
Tides and Currents Weather Stations Pressure Air Temp Water Temp Dewpoint Dewpoint Depression Visibility Wind Speed Wind Dir Waves Ship Positions

Praia Da Marosa

Last reported at 2018-Jan-12 06:22 UTC. Time now 2018-Jan-20 15:22 UTC.
Position N 43°44' W 006°06'.
Warning: this ship's position is 8 days out of date.

Length 31 m.

Type: Fishing. MMSI: 224097970.

Date/timePositionNaut miles runAvg speedWind from/ knotsBaromVisibWave heightAir tempDewpointWater temp
2018-Jan-12 06:22N 43°44' W 006°06'9 9.3
2018-Jan-12 05:25N 43°47' W 005°54'4 9.2
2018-Jan-12 04:57N 43°48' W 005°48'2 2.9
2018-Jan-12 04:20N 43°48' W 005°46'1 3.2
2018-Jan-12 03:59N 43°48' W 005°44'2 3.2
2018-Jan-12 03:13N 43°47' W 005°41'1 3.2
2018-Jan-12 03:00N 43°47' W 005°40'2 3.2
2018-Jan-12 02:30N 43°47' W 005°38'2 3.2
2018-Jan-12 02:00N 43°47' W 005°36'4 3.1
2018-Jan-12 00:39N 43°47' W 005°30'1 3.7
2018-Jan-12 00:30N 43°47' W 005°29'8 1.3
2018-Jan-11 18:33N 43°47' W 005°40'0 2.9
2018-Jan-11 18:27N 43°47' W 005°39'1 2.9
2018-Jan-11 17:59N 43°46' W 005°37'2 2.7
2018-Jan-11 17:25N 43°46' W 005°35'2 2.7
2018-Jan-11 16:45N 43°46' W 005°33'1 2.7
2018-Jan-11 16:24N 43°45' W 005°32'1 2.8
2018-Jan-11 16:00N 43°45' W 005°30'1 2.7
2018-Jan-11 15:31N 43°45' W 005°28'1 2.0
2018-Jan-11 15:00N 43°44' W 005°28'5 9.2
2018-Jan-11 14:31N 43°41' W 005°32'5 9.3
2018-Jan-11 14:01N 43°37' W 005°36'4 7.9
2018-Jan-11 13:30N 43°34' W 005°40'1 2.8
2018-Jan-11 13:01N 43°33' W 005°42'0 0.0
2018-Jan-11 12:31N 43°33' W 005°42'0 0.0
2018-Jan-11 12:00N 43°33' W 005°42'0 0.0
2018-Jan-11 11:31N 43°33' W 005°42'0 0.0
2018-Jan-11 11:01N 43°33' W 005°42'0 0.0
2018-Jan-11 10:31N 43°33' W 005°42'0 0.0
2018-Jan-11 10:00N 43°33' W 005°42'0 0.0
2018-Jan-11 09:28N 43°33' W 005°42'0 0.0
2018-Jan-11 09:01N 43°33' W 005°42'0 0.0
2018-Jan-11 08:30N 43°33' W 005°42'0 0.0
2018-Jan-11 08:01N 43°33' W 005°42'0 0.0
2018-Jan-11 07:30N 43°33' W 005°42'0 0.0
2018-Jan-11 07:00N 43°33' W 005°42'0 0.0
2018-Jan-11 06:30N 43°33' W 005°42'0 0.0
2018-Jan-11 06:00N 43°33' W 005°42'0 0.0
2018-Jan-11 05:31N 43°33' W 005°42'0 0.0
2018-Jan-11 05:00N 43°33' W 005°42'0 0.0
2018-Jan-11 04:31N 43°33' W 005°42'0 0.0
2018-Jan-11 04:01N 43°33' W 005°42'0 0.0
2018-Jan-11 03:30N 43°33' W 005°42'0 0.0
2018-Jan-11 03:01N 43°33' W 005°42'0 0.0
2018-Jan-11 02:31N 43°33' W 005°42'0 0.0
2018-Jan-11 02:01N 43°33' W 005°42'0 0.0
2018-Jan-11 01:30N 43°33' W 005°42'0 0.0
2018-Jan-11 01:01N 43°33' W 005°42'0 0.0
2018-Jan-11 00:30N 43°33' W 005°42'0 0.0
2018-Jan-11 00:00N 43°33' W 005°42'0 0.0
2018-Jan-10 23:30N 43°33' W 005°42'0 0.0
2018-Jan-10 22:59N 43°33' W 005°42'0 0.0
2018-Jan-10 22:30N 43°33' W 005°42'0 0.0
2018-Jan-10 22:00N 43°33' W 005°42'0 0.0
2018-Jan-10 21:31N 43°33' W 005°42'0 0.0
2018-Jan-10 21:00N 43°33' W 005°42'0 0.0
2018-Jan-10 20:30N 43°33' W 005°42'0 0.0
2018-Jan-10 20:00N 43°33' W 005°42'0 0.0
2018-Jan-10 19:31N 43°33' W 005°42'0 0.0
2018-Jan-10 19:01N 43°33' W 005°42'0 0.0
2018-Jan-10 18:30N 43°33' W 005°42'0 0.0
2018-Jan-10 18:01N 43°33' W 005°42'0 0.0
2018-Jan-10 17:29N 43°33' W 005°42'0 0.1
2018-Jan-10 17:00N 43°33' W 005°42'0 0.2
2018-Jan-10 16:30N 43°33' W 005°42'4 7.2
2018-Jan-10 15:59N 43°36' W 005°39'5 9.3
2018-Jan-10 15:28N 43°41' W 005°36'7 2.8
2018-Jan-10 12:51N 43°47' W 005°41'1 4.0
2018-Jan-10 12:30N 43°48' W 005°43'4 2.0
2018-Jan-10 10:34N 43°46' W 005°38'1 3.3
2018-Jan-10 10:07N 43°46' W 005°36'0 3.3
2018-Jan-10 09:58N 43°46' W 005°35'2 3.4
2018-Jan-10 09:29N 43°46' W 005°33'2 3.4
2018-Jan-10 08:58N 43°45' W 005°31'2 3.3
2018-Jan-10 08:29N 43°45' W 005°29'2 3.5
2018-Jan-10 07:58N 43°45' W 005°26'2 3.5
2018-Jan-10 07:23N 43°47' W 005°25'1 3.2
2018-Jan-10 07:00N 43°48' W 005°24'3 3.0
2018-Jan-10 06:11N 43°48' W 005°20'1 3.0
2018-Jan-10 06:00N 43°48' W 005°20'2 3.1
2018-Jan-10 05:26N 43°48' W 005°17'1 3.0
2018-Jan-10 04:56N 43°48' W 005°15'2 1.0
2018-Jan-10 03:12N 43°48' W 005°13'25 3.2
2018-Jan-09 19:22N 43°48' W 005°48'4 9.6
2018-Jan-09 19:00N 43°45' W 005°50'7 1.3
2018-Jan-09 13:27N 43°47' W 005°41'2 3.3
2018-Jan-09 12:54N 43°46' W 005°38'3 3.6
2018-Jan-09 12:08N 43°45' W 005°35'1 5.6
2018-Jan-09 12:01N 43°45' W 005°35'4 2.0
2018-Jan-09 10:13N 43°48' W 005°38'1 3.1
2018-Jan-09 09:50N 43°49' W 005°39'1 3.2
2018-Jan-09 09:29N 43°50' W 005°40'4 3.2
2018-Jan-09 08:16N 43°52' W 005°44'1 4.3
2018-Jan-09 07:57N 43°53' W 005°46'6 0.2
2018-Jan-08 04:26N 43°49' W 005°40'1 3.2
2018-Jan-08 04:01N 43°48' W 005°41'3 5.1
2018-Jan-08 03:23N 43°46' W 005°45'3 9.0
2018-Jan-08 03:00N 43°43' W 005°48'  
2018-Jan-05 15:46N 43°41' W 005°51'3 8.7
2018-Jan-05 15:28N 43°43' W 005°49'5 8.3
2018-Jan-05 14:49N 43°48' W 005°44'1 1.3
2018-Jan-05 13:57N 43°47' W 005°43'1 2.9
2018-Jan-05 13:30N 43°47' W 005°41'2 2.9
2018-Jan-05 12:42N 43°46' W 005°38'1 3.0
2018-Jan-05 12:29N 43°46' W 005°37'3 3.1
2018-Jan-05 11:28N 43°46' W 005°33'1 1.1
2018-Jan-05 10:59N 43°46' W 005°32'1 1.4
2018-Jan-05 10:30N 43°46' W 005°31'2 3.0
2018-Jan-05 09:59N 43°47' W 005°30'1 2.9
2018-Jan-05 09:30N 43°48' W 005°28'1 3.0
2018-Jan-05 09:00N 43°49' W 005°27'2 3.0
2018-Jan-05 08:30N 43°50' W 005°25'2 3.0
2018-Jan-05 08:00N 43°51' W 005°24'3 3.0
2018-Jan-05 07:01N 43°52' W 005°28'0 2.5
2018-Jan-05 07:00N 43°52' W 005°28'1 1.5
2018-Jan-05 06:20N 43°51' W 005°26'1 3.0
2018-Jan-05 05:59N 43°51' W 005°25'1 3.1
2018-Jan-05 05:30N 43°51' W 005°23'2 3.1
2018-Jan-05 04:57N 43°51' W 005°21'1 3.1
2018-Jan-05 04:30N 43°50' W 005°19'2 2.9
2018-Jan-05 03:54N 43°49' W 005°17'2 2.8
2018-Jan-05 03:21N 43°48' W 005°15'1 2.9
2018-Jan-05 03:00N 43°48' W 005°14'1 0.7
2018-Jan-05 02:17N 43°48' W 005°13'5 3.1
2018-Jan-05 00:47N 43°50' W 005°19'1 3.2
2018-Jan-05 00:24N 43°51' W 005°20'15 2.7
2018-Jan-04 18:44N 43°50' W 005°41'1 3.0
2018-Jan-04 18:29N 43°50' W 005°42'2 3.0
2018-Jan-04 17:42N 43°50' W 005°45'1 3.9
2018-Jan-04 17:28N 43°50' W 005°47'1 1.6
2018-Jan-04 16:59N 43°51' W 005°47'1 2.3
2018-Jan-04 16:25N 43°49' W 005°47'2 3.0
2018-Jan-04 15:54N 43°48' W 005°45'1 3.0
2018-Jan-04 15:30N 43°48' W 005°44'2 3.0
2018-Jan-04 14:54N 43°47' W 005°41'6 2.8
2018-Jan-04 12:46N 43°46' W 005°33'1 2.1
2018-Jan-04 12:27N 43°46' W 005°32'4 7.8
2018-Jan-04 11:57N 43°47' W 005°37'5 9.1
2018-Jan-04 11:26N 43°48' W 005°44'2 1.8
2018-Jan-04 10:09N 43°47' W 005°41'1 2.8
2018-Jan-04 09:44N 43°47' W 005°39'1 2.8
2018-Jan-04 09:23N 43°47' W 005°38'1 3.0
2018-Jan-04 08:55N 43°47' W 005°36'1 3.1
2018-Jan-04 08:29N 43°47' W 005°34'2 3.0
2018-Jan-04 07:55N 43°47' W 005°32'1 3.1
2018-Jan-04 07:27N 43°47' W 005°30'2 3.5
2018-Jan-04 06:59N 43°47' W 005°28'3 6.1
2018-Jan-04 06:25N 43°49' W 005°31'1 0.5
2018-Jan-04 04:27N 43°49' W 005°33'2 3.0
2018-Jan-04 03:46N 43°49' W 005°36'1 3.1
2018-Jan-04 03:30N 43°49' W 005°37'3 3.1
2018-Jan-04 02:33N 43°48' W 005°41'0 3.0
2018-Jan-04 02:29N 43°48' W 005°41'2 3.4
2018-Jan-04 01:45N 43°48' W 005°44'0 1.1
2018-Jan-04 01:30N 43°48' W 005°44'11 2.6
2018-Jan-03 21:15N 43°47' W 005°29'1 3.0
2018-Jan-03 20:59N 43°46' W 005°28'1 2.4
2018-Jan-03 20:26N 43°45' W 005°28'4 8.9
2018-Jan-03 20:01N 43°42' W 005°31'5 9.1
2018-Jan-03 19:29N 43°39' W 005°36'4 9.2
2018-Jan-03 19:00N 43°36' W 005°40'3 5.4
2018-Jan-03 18:30N 43°33' W 005°42'0 0.0
2018-Jan-03 17:58N 43°33' W 005°42'0 0.0
2018-Jan-03 17:30N 43°33' W 005°42'1 2.7
2018-Jan-03 17:00N 43°34' W 005°40'5 9.6
2018-Jan-03 16:30N 43°39' W 005°38'5 9.4
2018-Jan-03 16:00N 43°43' W 005°35'3 3.5
2018-Jan-03 15:05N 43°46' W 005°35'1 2.7
2018-Jan-03 14:50N 43°46' W 005°35'1 2.8
2018-Jan-03 14:30N 43°47' W 005°37'2 2.8
2018-Jan-03 13:47N 43°47' W 005°39'1 2.9
2018-Jan-03 13:26N 43°48' W 005°41'1 3.0
2018-Jan-03 12:59N 43°49' W 005°42'2 3.1
2018-Jan-03 12:27N 43°50' W 005°43'1 1.3
2018-Jan-03 11:53N 43°51' W 005°43'4 2.5
2018-Jan-03 10:22N 43°51' W 005°38'9 3.1
2018-Jan-03 07:36N 43°51' W 005°26'1 4.0
2018-Jan-03 07:26N 43°52' W 005°26'3 1.8
2018-Jan-03 05:56N 43°54' W 005°24'3 2.5
2018-Jan-03 04:50N 43°54' W 005°21'4 2.4
2018-Jan-03 03:03N 43°52' W 005°15'1 2.5
2018-Jan-03 02:41N 43°51' W 005°14'1 2.4
2018-Jan-03 02:25N 43°51' W 005°14'1 2.4
2018-Jan-03 01:56N 43°50' W 005°12'10 1.8
2018-Jan-02 20:36N 43°53' W 005°25'0 3.8
2018-Jan-02 20:30N 43°53' W 005°25'0 0.9
2018-Jan-02 20:00N 43°52' W 005°25'2 3.1
2018-Jan-02 19:28N 43°52' W 005°23'7 3.0
2018-Jan-02 17:13N 43°49' W 005°14'1 3.0
2018-Jan-02 17:00N 43°48' W 005°14'0 0.1
2018-Jan-02 14:10N 43°48' W 005°13'1 3.2
2018-Jan-02 14:00N 43°49' W 005°14'19 3.1
2018-Jan-02 07:57N 43°51' W 005°40'4 3.0
2018-Jan-02 06:42N 43°51' W 005°45'1 3.6
2018-Jan-02 06:26N 43°51' W 005°47'  
Track history (hours):
 
Tides and Currents Weather Stations Pressure Air Temp Water Temp Dewpoint Dewpoint Depression Visibility Wind Speed Wind Dir Waves Ship Positions

Praia Da Marosa

Last reported at 2018-Jan-12 06:22 UTC. Time now 2018-Jan-20 15:22 UTC.
Position N 43°44' W 006°06'.
Warning: this ship's position is 8 days out of date.

Length 31 m.

Type: Fishing. MMSI: 224097970.

Date/timePositionNaut miles runAvg speedWind from/ knotsBaromVisibWave heightAir tempDewpointWater temp
2018-Jan-12 06:22N 43°44' W 006°06'9 9.3
2018-Jan-12 05:25N 43°47' W 005°54'4 9.2
2018-Jan-12 04:57N 43°48' W 005°48'2 2.9
2018-Jan-12 04:20N 43°48' W 005°46'1 3.2
2018-Jan-12 03:59N 43°48' W 005°44'2 3.2
2018-Jan-12 03:13N 43°47' W 005°41'1 3.2
2018-Jan-12 03:00N 43°47' W 005°40'2 3.2
2018-Jan-12 02:30N 43°47' W 005°38'2 3.2
2018-Jan-12 02:00N 43°47' W 005°36'4 3.1
2018-Jan-12 00:39N 43°47' W 005°30'1 3.7
2018-Jan-12 00:30N 43°47' W 005°29'8 1.3
2018-Jan-11 18:33N 43°47' W 005°40'0 2.9
2018-Jan-11 18:27N 43°47' W 005°39'1 2.9
2018-Jan-11 17:59N 43°46' W 005°37'2 2.7
2018-Jan-11 17:25N 43°46' W 005°35'2 2.7
2018-Jan-11 16:45N 43°46' W 005°33'1 2.7
2018-Jan-11 16:24N 43°45' W 005°32'1 2.8
2018-Jan-11 16:00N 43°45' W 005°30'1 2.7
2018-Jan-11 15:31N 43°45' W 005°28'1 2.0
2018-Jan-11 15:00N 43°44' W 005°28'5 9.2
2018-Jan-11 14:31N 43°41' W 005°32'5 9.3
2018-Jan-11 14:01N 43°37' W 005°36'4 7.9
2018-Jan-11 13:30N 43°34' W 005°40'1 2.8
2018-Jan-11 13:01N 43°33' W 005°42'0 0.0
2018-Jan-11 12:31N 43°33' W 005°42'0 0.0
2018-Jan-11 12:00N 43°33' W 005°42'0 0.0
2018-Jan-11 11:31N 43°33' W 005°42'0 0.0
2018-Jan-11 11:01N 43°33' W 005°42'0 0.0
2018-Jan-11 10:31N 43°33' W 005°42'0 0.0
2018-Jan-11 10:00N 43°33' W 005°42'0 0.0
2018-Jan-11 09:28N 43°33' W 005°42'0 0.0
2018-Jan-11 09:01N 43°33' W 005°42'0 0.0
2018-Jan-11 08:30N 43°33' W 005°42'0 0.0
2018-Jan-11 08:01N 43°33' W 005°42'0 0.0
2018-Jan-11 07:30N 43°33' W 005°42'0 0.0
2018-Jan-11 07:00N 43°33' W 005°42'0 0.0
2018-Jan-11 06:30N 43°33' W 005°42'0 0.0
2018-Jan-11 06:00N 43°33' W 005°42'0 0.0
2018-Jan-11 05:31N 43°33' W 005°42'0 0.0
2018-Jan-11 05:00N 43°33' W 005°42'0 0.0
2018-Jan-11 04:31N 43°33' W 005°42'0 0.0
2018-Jan-11 04:01N 43°33' W 005°42'0 0.0
2018-Jan-11 03:30N 43°33' W 005°42'0 0.0
2018-Jan-11 03:01N 43°33' W 005°42'0 0.0
2018-Jan-11 02:31N 43°33' W 005°42'0 0.0
2018-Jan-11 02:01N 43°33' W 005°42'0 0.0
2018-Jan-11 01:30N 43°33' W 005°42'0 0.0
2018-Jan-11 01:01N 43°33' W 005°42'0 0.0
2018-Jan-11 00:30N 43°33' W 005°42'0 0.0
2018-Jan-11 00:00N 43°33' W 005°42'0 0.0
2018-Jan-10 23:30N 43°33' W 005°42'0 0.0
2018-Jan-10 22:59N 43°33' W 005°42'0 0.0
2018-Jan-10 22:30N 43°33' W 005°42'0 0.0
2018-Jan-10 22:00N 43°33' W 005°42'0 0.0
2018-Jan-10 21:31N 43°33' W 005°42'0 0.0
2018-Jan-10 21:00N 43°33' W 005°42'0 0.0
2018-Jan-10 20:30N 43°33' W 005°42'0 0.0
2018-Jan-10 20:00N 43°33' W 005°42'0 0.0
2018-Jan-10 19:31N 43°33' W 005°42'0 0.0
2018-Jan-10 19:01N 43°33' W 005°42'0 0.0
2018-Jan-10 18:30N 43°33' W 005°42'0 0.0
2018-Jan-10 18:01N 43°33' W 005°42'0 0.0
2018-Jan-10 17:29N 43°33' W 005°42'0 0.1
2018-Jan-10 17:00N 43°33' W 005°42'0 0.2
2018-Jan-10 16:30N 43°33' W 005°42'4 7.2
2018-Jan-10 15:59N 43°36' W 005°39'5 9.3
2018-Jan-10 15:28N 43°41' W 005°36'7 2.8
2018-Jan-10 12:51N 43°47' W 005°41'1 4.0
2018-Jan-10 12:30N 43°48' W 005°43'4 2.0
2018-Jan-10 10:34N 43°46' W 005°38'1 3.3
2018-Jan-10 10:07N 43°46' W 005°36'0 3.3
2018-Jan-10 09:58N 43°46' W 005°35'2 3.4
2018-Jan-10 09:29N 43°46' W 005°33'2 3.4
2018-Jan-10 08:58N 43°45' W 005°31'2 3.3
2018-Jan-10 08:29N 43°45' W 005°29'2 3.5
2018-Jan-10 07:58N 43°45' W 005°26'2 3.5
2018-Jan-10 07:23N 43°47' W 005°25'1 3.2
2018-Jan-10 07:00N 43°48' W 005°24'3 3.0
2018-Jan-10 06:11N 43°48' W 005°20'1 3.0
2018-Jan-10 06:00N 43°48' W 005°20'2 3.1
2018-Jan-10 05:26N 43°48' W 005°17'1 3.0
2018-Jan-10 04:56N 43°48' W 005°15'2 1.0
2018-Jan-10 03:12N 43°48' W 005°13'25 3.2
2018-Jan-09 19:22N 43°48' W 005°48'4 9.6
2018-Jan-09 19:00N 43°45' W 005°50'7 1.3
2018-Jan-09 13:27N 43°47' W 005°41'2 3.3
2018-Jan-09 12:54N 43°46' W 005°38'3 3.6
2018-Jan-09 12:08N 43°45' W 005°35'1 5.6
2018-Jan-09 12:01N 43°45' W 005°35'4 2.0
2018-Jan-09 10:13N 43°48' W 005°38'1 3.1
2018-Jan-09 09:50N 43°49' W 005°39'1 3.2
2018-Jan-09 09:29N 43°50' W 005°40'4 3.2
2018-Jan-09 08:16N 43°52' W 005°44'1 4.3
2018-Jan-09 07:57N 43°53' W 005°46'6 0.2
2018-Jan-08 04:26N 43°49' W 005°40'1 3.2
2018-Jan-08 04:01N 43°48' W 005°41'3 5.1
2018-Jan-08 03:23N 43°46' W 005°45'3 9.0
2018-Jan-08 03:00N 43°43' W 005°48'  
2018-Jan-05 15:46N 43°41' W 005°51'3 8.7
2018-Jan-05 15:28N 43°43' W 005°49'5 8.3
2018-Jan-05 14:49N 43°48' W 005°44'1 1.3
2018-Jan-05 13:57N 43°47' W 005°43'1 2.9
2018-Jan-05 13:30N 43°47' W 005°41'2 2.9
2018-Jan-05 12:42N 43°46' W 005°38'1 3.0
2018-Jan-05 12:29N 43°46' W 005°37'3 3.1
2018-Jan-05 11:28N 43°46' W 005°33'1 1.1
2018-Jan-05 10:59N 43°46' W 005°32'1 1.4
2018-Jan-05 10:30N 43°46' W 005°31'2 3.0
2018-Jan-05 09:59N 43°47' W 005°30'1 2.9
2018-Jan-05 09:30N 43°48' W 005°28'1 3.0
2018-Jan-05 09:00N 43°49' W 005°27'2 3.0
2018-Jan-05 08:30N 43°50' W 005°25'2 3.0
2018-Jan-05 08:00N 43°51' W 005°24'3 3.0
2018-Jan-05 07:01N 43°52' W 005°28'0 2.5
2018-Jan-05 07:00N 43°52' W 005°28'1 1.5
2018-Jan-05 06:20N 43°51' W 005°26'1 3.0
2018-Jan-05 05:59N 43°51' W 005°25'1 3.1
2018-Jan-05 05:30N 43°51' W 005°23'2 3.1
2018-Jan-05 04:57N 43°51' W 005°21'1 3.1
2018-Jan-05 04:30N 43°50' W 005°19'2 2.9
2018-Jan-05 03:54N 43°49' W 005°17'2 2.8
2018-Jan-05 03:21N 43°48' W 005°15'1 2.9
2018-Jan-05 03:00N 43°48' W 005°14'1 0.7
2018-Jan-05 02:17N 43°48' W 005°13'5 3.1
2018-Jan-05 00:47N 43°50' W 005°19'1 3.2
2018-Jan-05 00:24N 43°51' W 005°20'15 2.7
2018-Jan-04 18:44N 43°50' W 005°41'1 3.0
2018-Jan-04 18:29N 43°50' W 005°42'2 3.0
2018-Jan-04 17:42N 43°50' W 005°45'1 3.9
2018-Jan-04 17:28N 43°50' W 005°47'1 1.6
2018-Jan-04 16:59N 43°51' W 005°47'1 2.3
2018-Jan-04 16:25N 43°49' W 005°47'2 3.0
2018-Jan-04 15:54N 43°48' W 005°45'1 3.0
2018-Jan-04 15:30N 43°48' W 005°44'2 3.0
2018-Jan-04 14:54N 43°47' W 005°41'6 2.8
2018-Jan-04 12:46N 43°46' W 005°33'1 2.1
2018-Jan-04 12:27N 43°46' W 005°32'4 7.8
2018-Jan-04 11:57N 43°47' W 005°37'5 9.1
2018-Jan-04 11:26N 43°48' W 005°44'2 1.8
2018-Jan-04 10:09N 43°47' W 005°41'1 2.8
2018-Jan-04 09:44N 43°47' W 005°39'1 2.8
2018-Jan-04 09:23N 43°47' W 005°38'1 3.0
2018-Jan-04 08:55N 43°47' W 005°36'1 3.1
2018-Jan-04 08:29N 43°47' W 005°34'2 3.0
2018-Jan-04 07:55N 43°47' W 005°32'1 3.1
2018-Jan-04 07:27N 43°47' W 005°30'2 3.5
2018-Jan-04 06:59N 43°47' W 005°28'3 6.1
2018-Jan-04 06:25N 43°49' W 005°31'1 0.5
2018-Jan-04 04:27N 43°49' W 005°33'2 3.0
2018-Jan-04 03:46N 43°49' W 005°36'1 3.1
2018-Jan-04 03:30N 43°49' W 005°37'3 3.1
2018-Jan-04 02:33N 43°48' W 005°41'0 3.0
2018-Jan-04 02:29N 43°48' W 005°41'2 3.4
2018-Jan-04 01:45N 43°48' W 005°44'0 1.1
2018-Jan-04 01:30N 43°48' W 005°44'11 2.6
2018-Jan-03 21:15N 43°47' W 005°29'1 3.0
2018-Jan-03 20:59N 43°46' W 005°28'1 2.4
2018-Jan-03 20:26N 43°45' W 005°28'4 8.9
2018-Jan-03 20:01N 43°42' W 005°31'5 9.1
2018-Jan-03 19:29N 43°39' W 005°36'4 9.2
2018-Jan-03 19:00N 43°36' W 005°40'3 5.4
2018-Jan-03 18:30N 43°33' W 005°42'0 0.0
2018-Jan-03 17:58N 43°33' W 005°42'0 0.0
2018-Jan-03 17:30N 43°33' W 005°42'1 2.7
2018-Jan-03 17:00N 43°34' W 005°40'5 9.6
2018-Jan-03 16:30N 43°39' W 005°38'5 9.4
2018-Jan-03 16:00N 43°43' W 005°35'3 3.5
2018-Jan-03 15:05N 43°46' W 005°35'1 2.7
2018-Jan-03 14:50N 43°46' W 005°35'1 2.8
2018-Jan-03 14:30N 43°47' W 005°37'2 2.8
2018-Jan-03 13:47N 43°47' W 005°39'1 2.9
2018-Jan-03 13:26N 43°48' W 005°41'1 3.0
2018-Jan-03 12:59N 43°49' W 005°42'2 3.1
2018-Jan-03 12:27N 43°50' W 005°43'1 1.3
2018-Jan-03 11:53N 43°51' W 005°43'4 2.5
2018-Jan-03 10:22N 43°51' W 005°38'9 3.1
2018-Jan-03 07:36N 43°51' W 005°26'1 4.0
2018-Jan-03 07:26N 43°52' W 005°26'3 1.8
2018-Jan-03 05:56N 43°54' W 005°24'3 2.5
2018-Jan-03 04:50N 43°54' W 005°21'4 2.4
2018-Jan-03 03:03N 43°52' W 005°15'1 2.5
2018-Jan-03 02:41N 43°51' W 005°14'1 2.4
2018-Jan-03 02:25N 43°51' W 005°14'1 2.4
2018-Jan-03 01:56N 43°50' W 005°12'10 1.8
2018-Jan-02 20:36N 43°53' W 005°25'0 3.8
2018-Jan-02 20:30N 43°53' W 005°25'0 0.9
2018-Jan-02 20:00N 43°52' W 005°25'2 3.1
2018-Jan-02 19:28N 43°52' W 005°23'7 3.0
2018-Jan-02 17:13N 43°49' W 005°14'1 3.0
2018-Jan-02 17:00N 43°48' W 005°14'0 0.1
2018-Jan-02 14:10N 43°48' W 005°13'1 3.2
2018-Jan-02 14:00N 43°49' W 005°14'19 3.1
2018-Jan-02 07:57N 43°51' W 005°40'4 3.0
2018-Jan-02 06:42N 43°51' W 005°45'1 3.6
2018-Jan-02 06:26N 43°51' W 005°47'  

Dump ship's entire track history